Time;durP1;ratioP1;P1;durP2;ratioP2;P2;SDS_P1;SDS_P2;PMS_P1;PMS_P2;Temp;Humidity;BMP_temperature;BMP_pressure;BME280_temperature;BME280_humidity;BME280_pressure;Samples;Min_cycle;Max_cycle;Signal;HPM_P1;HPM_P2
2022/08/21 04:00:26;;;;;;;6.50;6.00;;;15.90;99.90;;;;;;5956380;23;20381;-65
2022/08/21 04:02:52;;;;;;;6.33;5.80;;;15.90;99.90;;;;;;4976697;28;20450;-65
2022/08/21 04:05:27;;;;;;;6.33;5.83;;;15.90;99.90;;;;;;4976224;28;20451;-65
2022/08/21 04:07:56;;;;;;;6.43;5.93;;;15.90;99.90;;;;;;4976997;28;20502;-65
2022/08/21 04:10:24;;;;;;;7.37;6.83;;;15.90;99.90;;;;;;4976077;28;20454;-65
2022/08/21 04:12:51;;;;;;;7.30;6.60;;;15.90;99.90;;;;;;4976417;28;20455;-65
2022/08/21 04:15:18;;;;;;;7.67;7.00;;;15.90;99.90;;;;;;4976144;28;20509;-65
2022/08/21 04:17:46;;;;;;;7.03;6.43;;;15.90;99.90;;;;;;4976245;28;20447;-65
2022/08/21 04:20:13;;;;;;;6.80;6.30;;;15.90;99.90;;;;;;4975928;28;20513;-65
2022/08/21 04:22:40;;;;;;;6.40;5.80;;;15.90;99.90;;;;;;4976046;28;20451;-65
2022/08/21 04:25:08;;;;;;;6.93;6.10;;;15.90;99.90;;;;;;4976002;28;20459;-65
2022/08/21 04:27:35;;;;;;;8.97;6.03;;;15.90;99.90;;;;;;4976689;28;20483;-65
2022/08/21 04:30:01;;;;;;;6.93;6.33;;;15.90;99.90;;;;;;4975976;28;20478;-67
2022/08/21 04:32:28;;;;;;;6.90;6.37;;;15.90;99.90;;;;;;4976521;28;20475;-66
2022/08/21 04:35:00;;;;;;;9.40;6.00;;;15.90;99.90;;;;;;4976550;28;20451;-66
2022/08/21 04:37:28;;;;;;;8.57;5.80;;;15.90;99.90;;;;;;4975856;28;20526;-66
2022/08/21 04:39:56;;;;;;;7.27;6.50;;;15.90;99.90;;;;;;4975838;28;20458;-66
2022/08/21 04:42:23;;;;;;;6.43;6.00;;;15.90;99.90;;;;;;4975745;28;20503;-65
2022/08/21 04:44:50;;;;;;;6.47;5.87;;;15.90;99.90;;;;;;4975558;28;20942;-65
2022/08/21 04:47:17;;;;;;;8.63;6.03;;;15.90;99.90;;;;;;4975324;28;20466;-65
2022/08/21 04:49:43;;;;;;;6.07;5.43;;;15.90;99.90;;;;;;4975755;28;20919;-65
2022/08/21 04:52:14;;;;;;;5.80;5.40;;;15.90;99.90;;;;;;4975728;28;20475;-65
2022/08/21 04:54:43;;;;;;;6.73;5.83;;;16.00;99.90;;;;;;4975622;28;20442;-65
2022/08/21 04:57:10;;;;;;;6.40;5.80;;;16.00;99.90;;;;;;4975843;28;20509;-65
2022/08/21 04:59:40;;;;;;;5.67;5.27;;;16.00;99.90;;;;;;4975362;28;20454;-65
2022/08/21 05:02:09;;;;;;;5.70;5.20;;;16.00;99.90;;;;;;4975168;28;20489;-66
2022/08/21 05:04:38;;;;;;;5.83;5.43;;;16.00;99.90;;;;;;4975511;28;20506;-66
2022/08/21 05:07:08;;;;;;;6.20;5.70;;;16.00;99.90;;;;;;4975467;28;20454;-66
2022/08/21 05:09:38;;;;;;;6.27;5.87;;;16.10;99.90;;;;;;4975079;28;20474;-66
2022/08/21 05:12:06;;;;;;;6.60;6.10;;;16.10;99.90;;;;;;4975434;28;20478;-65
2022/08/21 05:14:32;;;;;;;6.03;5.47;;;16.00;99.90;;;;;;4975076;28;20465;-65
2022/08/21 05:16:59;;;;;;;6.40;5.70;;;16.00;99.90;;;;;;4975333;28;20459;-66
2022/08/21 05:19:27;;;;;;;6.30;5.80;;;16.00;99.90;;;;;;4975391;28;20457;-65
2022/08/21 05:21:54;;;;;;;7.00;5.40;;;16.10;99.90;;;;;;4975186;28;20570;-65
2022/08/21 05:24:21;;;;;;;6.60;6.00;;;16.10;99.90;;;;;;4974918;28;20984;-65
2022/08/21 05:26:49;;;;;;;6.77;6.07;;;16.10;99.90;;;;;;4974816;28;20458;-66
2022/08/21 05:29:16;;;;;;;6.00;5.50;;;16.10;99.90;;;;;;4975369;28;20481;-65
2022/08/21 05:31:43;;;;;;;6.07;5.67;;;16.10;99.90;;;;;;4974956;28;21005;-65
2022/08/21 05:34:10;;;;;;;6.13;5.73;;;16.20;99.90;;;;;;4975155;28;20461;-65
2022/08/21 05:36:37;;;;;;;6.00;5.50;;;16.30;99.90;;;;;;4976679;28;20454;-65
2022/08/21 05:39:04;;;;;;;7.60;6.97;;;16.40;99.90;;;;;;4977431;28;20817;-65
2022/08/21 05:41:31;;;;;;;5.90;5.40;;;16.50;99.90;;;;;;4976817;28;20474;-65
2022/08/21 05:43:59;;;;;;;7.77;5.70;;;16.80;99.90;;;;;;4975225;28;20458;-65
2022/08/21 05:46:25;;;;;;;5.47;5.10;;;17.10;99.90;;;;;;4975025;28;20461;-65
2022/08/21 05:48:52;;;;;;;5.37;4.87;;;17.40;99.90;;;;;;4975098;28;20474;-65
2022/08/21 05:51:19;;;;;;;5.13;4.67;;;17.70;99.90;;;;;;4975204;28;20474;-66
2022/08/21 05:53:46;;;;;;;6.37;4.70;;;18.10;99.90;;;;;;4974582;28;20458;-66
2022/08/21 05:56:14;;;;;;;5.27;4.83;;;18.50;99.90;;;;;;4974942;28;20462;-66
2022/08/21 05:58:41;;;;;;;5.87;5.27;;;18.90;99.90;;;;;;4979572;28;20450;-65
2022/08/21 06:01:09;;;;;;;6.83;5.20;;;19.20;99.90;;;;;;4981957;28;20486;-66
2022/08/21 06:03:38;;;;;;;6.10;4.20;;;19.60;99.90;;;;;;4979195;28;20458;-66
2022/08/21 06:06:05;;;;;;;7.97;4.33;;;19.90;99.90;;;;;;4978343;28;20875;-66
2022/08/21 06:08:33;;;;;;;4.70;4.30;;;20.30;99.90;;;;;;4978485;28;20498;-66
2022/08/21 06:11:01;;;;;;;4.30;3.90;;;20.80;99.90;;;;;;4978346;28;21027;-66
2022/08/21 06:13:29;;;;;;;4.60;4.27;;;21.20;99.90;;;;;;4979312;28;20458;-67
2022/08/21 06:16:03;;;;;;;4.13;3.83;;;21.60;99.90;;;;;;4978461;28;20459;-66
2022/08/21 06:18:31;;;;;;;7.50;4.30;;;21.80;99.90;;;;;;4978189;28;20932;-66
2022/08/21 06:20:58;;;;;;;4.77;4.27;;;22.10;99.90;;;;;;4978321;28;20478;-66
2022/08/21 06:23:25;;;;;;;5.10;4.27;;;22.40;99.90;;;;;;4979276;28;20770;-66
2022/08/21 06:25:51;;;;;;;6.57;4.20;;;22.50;99.90;;;;;;4978210;28;20473;-67
2022/08/21 06:28:18;;;;;;;5.00;4.03;;;22.60;99.90;;;;;;4978002;28;20454;-65
2022/08/21 06:30:45;;;;;;;4.13;3.83;;;22.90;99.90;;;;;;4977925;28;20470;-65
2022/08/21 06:33:12;;;;;;;4.63;3.60;;;23.00;99.90;;;;;;4978315;28;20465;-66
2022/08/21 06:35:40;;;;;;;4.53;4.10;;;23.40;99.90;;;;;;4978209;28;20467;-65
2022/08/21 06:38:06;;;;;;;6.33;4.43;;;23.80;99.90;;;;;;4977954;28;20795;-65
2022/08/21 06:40:33;;;;;;;4.27;3.97;;;24.00;99.90;;;;;;4977841;28;20510;-65
2022/08/21 06:43:07;;;;;;;4.73;4.23;;;24.40;99.90;;;;;;4977888;28;20481;-65
2022/08/21 06:45:34;;;;;;;4.33;3.90;;;24.60;99.90;;;;;;4978000;28;20517;-65
2022/08/21 06:48:01;;;;;;;4.63;4.17;;;24.60;99.90;;;;;;4977859;28;20518;-67
2022/08/21 06:50:28;;;;;;;6.40;4.40;;;24.80;99.90;;;;;;4977017;28;20474;-67
2022/08/21 06:53:02;;;;;;;5.80;4.80;;;25.20;99.90;;;;;;4977238;28;20450;-66
2022/08/21 06:55:29;;;;;;;4.10;3.80;;;25.50;99.90;;;;;;4977623;28;20445;-64
2022/08/21 06:57:55;;;;;;;4.07;3.67;;;26.00;99.90;;;;;;4977505;28;20466;-71
2022/08/21 07:00:22;;;;;;;4.50;4.10;;;26.30;99.90;;;;;;4977701;28;20841;-63
2022/08/21 07:02:49;;;;;;;4.40;4.00;;;26.70;99.80;;;;;;4978574;28;20772;-66
2022/08/21 07:05:16;;;;;;;4.63;3.77;;;27.00;99.50;;;;;;4977727;28;20462;-64
2022/08/21 07:07:43;;;;;;;4.30;4.03;;;27.20;98.20;;;;;;4977595;28;20454;-64
2022/08/21 07:10:11;;;;;;;4.20;3.73;;;27.30;96.60;;;;;;4976803;28;20601;-65
2022/08/21 07:12:38;;;;;;;4.23;3.70;;;27.30;97.20;;;;;;4977400;28;20464;-64
2022/08/21 07:15:06;;;;;;;3.97;3.57;;;27.70;96.50;;;;;;4977522;28;20461;-65
2022/08/21 07:17:33;;;;;;;4.90;3.67;;;28.10;95.70;;;;;;4976954;28;20459;-64
2022/08/21 07:19:59;;;;;;;5.23;4.83;;;28.70;92.90;;;;;;4977443;28;20435;-63
2022/08/21 07:22:27;;;;;;;6.70;3.90;;;28.90;91.10;;;;;;4977151;28;20475;-64
2022/08/21 07:24:54;;;;;;;6.90;4.00;;;29.20;90.50;;;;;;4976871;28;20933;-64
2022/08/21 07:27:22;;;;;;;5.50;3.90;;;28.90;91.00;;;;;;4977102;28;20461;-66
2022/08/21 07:29:49;;;;;;;6.60;5.30;;;28.70;90.90;;;;;;4977149;28;20479;-65
2022/08/21 07:32:16;;;;;;;4.87;3.47;;;29.00;90.60;;;;;;4976786;28;20835;-66
2022/08/21 07:34:43;;;;;;;6.13;3.77;;;29.40;89.80;;;;;;4976950;28;20458;-65
2022/08/21 07:37:10;;;;;;;7.23;4.87;;;29.30;87.20;;;;;;4976862;28;20458;-65
2022/08/21 07:39:37;;;;;;;7.27;4.33;;;29.20;85.80;;;;;;4977179;28;20462;-65
2022/08/21 07:42:04;;;;;;;8.63;4.87;;;29.50;84.80;;;;;;4976576;28;20506;-65
2022/08/21 07:44:34;;;;;;;6.03;4.80;;;29.00;83.70;;;;;;4976376;28;20825;-65
2022/08/21 07:47:00;;;;;;;4.60;4.10;;;29.00;84.90;;;;;;4976410;28;20875;-65
2022/08/21 07:49:28;;;;;;;4.33;4.00;;;29.30;84.70;;;;;;4976632;28;20479;-65
2022/08/21 07:51:54;;;;;;;6.67;4.80;;;29.20;83.20;;;;;;4976722;28;20870;-65
2022/08/21 07:54:21;;;;;;;4.77;4.23;;;29.30;82.80;;;;;;4976595;28;20458;-64
2022/08/21 07:56:48;;;;;;;6.40;4.53;;;29.00;80.80;;;;;;4976597;28;20466;-64
2022/08/21 07:59:14;;;;;;;5.50;4.20;;;28.70;80.00;;;;;;4976954;28;20451;-64
2022/08/21 08:01:42;;;;;;;8.50;4.50;;;29.50;82.40;;;;;;4976409;28;20497;-64
2022/08/21 08:04:09;;;;;;;6.23;4.13;;;30.10;81.60;;;;;;4976334;28;20506;-65
2022/08/21 08:06:36;;;;;;;4.60;4.20;;;30.90;77.90;;;;;;4976341;28;20458;-65
2022/08/21 08:09:03;;;;;;;5.10;4.67;;;31.20;76.00;;;;;;4976165;28;20462;-66
2022/08/21 08:11:30;;;;;;;5.03;4.03;;;30.70;73.30;;;;;;4976340;28;20500;-64
2022/08/21 08:13:59;;;;;;;6.33;4.70;;;30.50;76.30;;;;;;4976247;28;20462;-64
2022/08/21 08:16:27;;;;;;;5.30;3.70;;;30.90;72.20;;;;;;4975221;28;20939;-63
2022/08/21 08:18:55;;;;;;;6.80;4.40;;;31.00;72.90;;;;;;4975832;28;20674;-64
2022/08/21 08:21:22;;;;;;;5.03;4.07;;;30.50;71.30;;;;;;4975136;28;20506;-63
2022/08/21 08:23:49;;;;;;;4.93;4.43;;;30.00;71.90;;;;;;4975829;28;20853;-63
2022/08/21 08:26:16;;;;;;;5.60;4.40;;;30.40;74.90;;;;;;4976304;28;20856;-64
2022/08/21 08:28:43;;;;;;;4.67;4.13;;;30.90;73.00;;;;;;4975819;28;20894;-63
2022/08/21 08:31:10;;;;;;;6.00;4.83;;;31.50;75.40;;;;;;4975665;28;20483;-65
2022/08/21 08:33:37;;;;;;;4.20;3.80;;;32.30;75.70;;;;;;4975799;28;20458;-65
2022/08/21 08:36:06;;;;;;;7.23;4.73;;;32.90;71.60;;;;;;4975712;28;20504;-66
2022/08/21 08:38:32;;;;;;;5.20;4.70;;;33.80;69.90;;;;;;4975375;28;20457;-66
2022/08/21 08:41:03;;;;;;;5.00;4.50;;;34.40;65.60;;;;;;4975499;28;20474;-66
2022/08/21 08:43:32;;;;;;;8.70;4.50;;;35.00;65.70;;;;;;4975706;28;20910;-66
2022/08/21 08:46:04;;;;;;;5.47;4.17;;;35.50;60.70;;;;;;4975357;28;20851;-66
2022/08/21 08:48:51;;;;;;;5.90;5.00;;;35.70;62.20;;;;;;4975825;28;20438;-67
2022/08/21 08:51:23;;;;;;;4.97;4.53;;;35.80;58.40;;;;;;4977636;28;20485;-66
2022/08/21 08:53:55;;;;;;;5.87;5.27;;;36.20;57.80;;;;;;4978652;28;20449;-66
2022/08/21 08:56:28;;;;;;;5.77;4.73;;;35.70;58.10;;;;;;4976916;28;20898;-67
2022/08/21 08:58:58;;;;;;;5.17;4.17;;;35.80;57.70;;;;;;4975518;28;20438;-66
2022/08/21 09:01:25;;;;;;;5.10;4.40;;;35.70;57.60;;;;;;4975086;28;20985;-66
2022/08/21 09:03:52;;;;;;;5.57;4.13;;;35.90;56.00;;;;;;4975418;28;20458;-66
2022/08/21 09:06:53;;;;;;;6.27;4.10;;;35.70;58.40;;;;;;4975476;28;20454;-66
2022/08/21 09:09:31;;;;;;;9.83;4.67;;;35.70;57.90;;;;;;4975483;28;20449;-65
2022/08/21 09:12:03;;;;;;;5.27;4.30;;;35.70;58.20;;;;;;4976269;28;20832;-66
2022/08/21 09:14:43;;;;;;;6.20;3.97;;;36.00;55.90;;;;;;4976138;28;20449;-66
2022/08/21 09:17:20;;;;;;;5.67;4.60;;;36.30;55.00;;;;;;4975201;28;20799;-65
2022/08/21 09:19:59;;;;;;;6.73;5.00;;;36.30;53.40;;;;;;4975205;28;20472;-66
2022/08/21 09:22:34;;;;;;;5.27;4.30;;;36.40;53.70;;;;;;4974733;28;20484;-66
2022/08/21 09:25:09;;;;;;;6.97;4.30;;;36.10;56.40;;;;;;4975265;28;20449;-66
2022/08/21 09:27:36;;;;;;;5.03;4.70;;;36.20;53.40;;;;;;4975072;28;20442;-66
2022/08/21 09:30:05;;;;;;;4.30;4.00;;;36.20;54.70;;;;;;4975200;28;20482;-66
2022/08/21 09:32:34;;;;;;;5.67;4.50;;;35.80;52.20;;;;;;4975401;28;20474;-68
2022/08/21 09:35:07;;;;;;;8.40;3.77;;;36.10;54.10;;;;;;4979148;28;20869;-70
2022/08/21 09:37:47;;;;;;;4.20;3.80;;;36.60;51.00;;;;;;4979279;28;20442;-65
2022/08/21 09:40:27;;;;;;;4.93;4.43;;;36.90;50.80;;;;;;4979003;28;20970;-64
2022/08/21 09:43:01;;;;;;;4.33;3.90;;;37.50;48.50;;;;;;4979215;28;20438;-65
2022/08/21 09:45:29;;;;;;;4.87;4.50;;;37.50;49.70;;;;;;4978628;28;20438;-65
2022/08/21 09:47:56;;;;;;;6.17;4.53;;;36.90;49.00;;;;;;4979216;28;20464;-67
2022/08/21 09:50:25;;;;;;;4.97;4.00;;;37.00;47.10;;;;;;4979539;28;20470;-66
2022/08/21 09:52:56;;;;;;;6.00;3.87;;;36.80;48.40;;;;;;4979689;28;20941;-64
2022/08/21 09:58:17;;;;;;;4.77;3.57;;;37.50;47.40;;;;;;4978829;28;20517;-65
2022/08/21 10:00:44;;;;;;;5.17;4.00;;;37.90;47.00;;;;;;4979255;28;20492;-66
2022/08/21 10:03:15;;;;;;;8.13;3.97;;;38.30;46.00;;;;;;4979164;28;20822;-66
2022/08/21 10:05:51;;;;;;;4.83;4.20;;;38.30;45.40;;;;;;4979353;28;20909;-66
2022/08/21 10:08:21;;;;;;;6.60;4.13;;;38.10;45.80;;;;;;4978450;28;20469;-65
2022/08/21 10:10:52;;;;;;;4.20;3.77;;;38.20;45.50;;;;;;4979034;28;20558;-67
2022/08/21 10:13:27;;;;;;;5.13;3.60;;;38.20;45.00;;;;;;4978714;28;20446;-66
2022/08/21 10:16:03;;;;;;;7.53;4.00;;;37.80;44.00;;;;;;4978756;28;20450;-67
2022/08/21 10:18:39;;;;;;;6.63;4.30;;;38.00;44.40;;;;;;4978352;28;20964;-66
2022/08/21 10:21:14;;;;;;;6.20;4.50;;;38.10;45.20;;;;;;4978463;28;20496;-65
2022/08/21 10:23:52;;;;;;;4.70;4.10;;;37.60;45.10;;;;;;4978047;28;20438;-67
2022/08/21 10:26:29;;;;;;;6.63;4.30;;;37.20;46.60;;;;;;4978273;28;20839;-66
2022/08/21 10:29:06;;;;;;;4.90;3.80;;;37.40;46.30;;;;;;4978053;28;20441;-67
2022/08/21 10:31:43;;;;;;;9.03;5.80;;;37.20;46.10;;;;;;4977856;28;20498;-66
2022/08/21 10:34:22;;;;;;;6.30;4.23;;;37.30;46.30;;;;;;4977848;28;20936;-63
2022/08/21 10:37:01;;;;;;;4.80;4.40;;;37.40;46.10;;;;;;4978205;28;20442;-64
2022/08/21 10:39:34;;;;;;;5.67;4.33;;;37.70;44.20;;;;;;4978080;28;20443;-66
2022/08/21 10:42:18;;;;;;;17.67;6.10;;;37.80;44.20;;;;;;4977779;28;20872;-64
2022/08/21 10:45:00;;;;;;;5.43;3.83;;;38.10;44.70;;;;;;4978127;28;20447;-67
2022/08/21 10:47:33;;;;;;;7.63;5.30;;;37.80;44.10;;;;;;4977437;28;20449;-68
2022/08/21 10:50:08;;;;;;;4.90;3.90;;;37.70;43.30;;;;;;4977622;28;21040;-66
2022/08/21 10:52:50;;;;;;;4.60;4.20;;;37.70;46.00;;;;;;4978368;28;20482;-68
2022/08/21 10:55:21;;;;;;;4.03;3.63;;;37.50;45.20;;;;;;4977993;28;20442;-66
2022/08/21 10:57:52;;;;;;;5.50;4.20;;;37.60;44.50;;;;;;4977887;28;20472;-70
2022/08/21 11:00:21;;;;;;;4.77;3.67;;;37.50;43.80;;;;;;4977454;28;20795;-70
2022/08/21 11:02:53;;;;;;;4.13;3.20;;;37.40;45.40;;;;;;4977400;28;20476;-65
2022/08/21 11:05:26;;;;;;;4.37;3.97;;;37.20;45.30;;;;;;4977661;28;20443;-67
2022/08/21 11:07:55;;;;;;;5.27;4.13;;;37.00;43.80;;;;;;4977789;28;20442;-70
2022/08/21 11:10:26;;;;;;;8.53;3.77;;;36.70;45.70;;;;;;4977209;28;20478;-65
2022/08/21 11:12:56;;;;;;;4.67;3.60;;;36.50;43.10;;;;;;4977505;28;20450;-64
2022/08/21 11:15:36;;;;;;;9.60;4.50;;;36.20;44.30;;;;;;4977116;28;20501;-66
2022/08/21 11:18:22;;;;;;;7.10;4.27;;;35.50;45.90;;;;;;4977204;28;20439;-64
2022/08/21 11:20:57;;;;;;;3.47;3.13;;;35.30;46.70;;;;;;4976966;28;20501;-64
2022/08/21 11:23:30;;;;;;;5.33;3.27;;;35.20;44.60;;;;;;4976939;28;20934;-64
2022/08/21 11:26:03;;;;;;;5.90;3.80;;;35.00;46.30;;;;;;4977220;28;20449;-70
2022/08/21 11:28:35;;;;;;;6.57;3.73;;;34.50;44.20;;;;;;4976844;28;20443;-66
2022/08/21 11:31:13;;;;;;;5.47;3.70;;;34.40;45.00;;;;;;4977028;28;20487;-65
2022/08/21 11:33:55;;;;;;;7.57;3.67;;;34.00;45.10;;;;;;4977187;28;20937;-66
2022/08/21 11:36:38;;;;;;;6.40;3.53;;;33.60;47.10;;;;;;4977173;28;20446;-66
2022/08/21 11:39:17;;;;;;;4.23;3.60;;;33.30;46.50;;;;;;4977178;28;20461;-65
2022/08/21 11:41:55;;;;;;;3.93;3.40;;;32.90;46.80;;;;;;4976395;28;20821;-65
2022/08/21 11:44:34;;;;;;;5.60;3.63;;;32.60;47.60;;;;;;4976784;28;20790;-66
2022/08/21 11:47:10;;;;;;;4.07;3.57;;;32.50;48.80;;;;;;4976416;28;20929;-66
2022/08/21 11:49:53;;;;;;;3.73;3.43;;;32.40;50.20;;;;;;4976553;28;20438;-66
2022/08/21 11:52:24;;;;;;;5.50;3.83;;;32.30;48.00;;;;;;4976699;28;20490;-66
2022/08/21 11:54:58;;;;;;;5.57;3.90;;;31.90;47.80;;;;;;4976968;28;20529;-66
2022/08/21 11:57:31;;;;;;;5.53;3.90;;;31.60;49.40;;;;;;4977015;28;20450;-66
2022/08/21 12:00:06;;;;;;;5.07;4.67;;;31.60;50.80;;;;;;4976603;28;20439;-67
2022/08/21 12:02:36;;;;;;;5.60;4.47;;;31.60;51.30;;;;;;4976149;28;20485;-65
2022/08/21 12:05:07;;;;;;;4.33;3.77;;;31.40;51.70;;;;;;4976498;28;20452;-63
2022/08/21 12:07:36;;;;;;;3.80;3.50;;;31.10;52.30;;;;;;4978286;28;20478;-63
2022/08/21 12:10:07;;;;;;;4.50;3.90;;;31.00;51.40;;;;;;4979329;28;20451;-64
2022/08/21 12:12:36;;;;;;;4.07;3.77;;;30.90;52.60;;;;;;4976767;28;20863;-63
2022/08/21 12:15:26;;;;;;;3.97;3.63;;;30.90;52.00;;;;;;4976490;28;20443;-63
2022/08/21 12:17:57;;;;;;;6.73;4.07;;;30.90;50.90;;;;;;4968440;28;20934;-63
2022/08/21 12:20:35;;;;;;;4.93;3.70;;;30.80;51.60;;;;;;4975946;28;20435;-64
2022/08/21 12:23:16;;;;;;;7.40;4.10;;;30.60;51.30;;;;;;4975901;28;20922;-64
2022/08/21 12:25:47;;;;;;;5.37;3.80;;;30.50;51.20;;;;;;4976577;28;20440;-64
2022/08/21 12:28:22;;;;;;;4.03;3.70;;;30.60;51.90;;;;;;4976781;28;20445;-64
2022/08/21 12:30:49;;;;;;;5.20;3.80;;;30.70;51.00;;;;;;4975657;28;20486;-64
2022/08/21 12:33:25;;;;;;;4.27;3.50;;;30.80;51.60;;;;;;4975898;28;20461;-64
2022/08/21 12:35:54;;;;;;;3.83;3.10;;;30.80;51.00;;;;;;4975290;28;20853;-64
2022/08/21 12:38:24;;;;;;;3.80;3.13;;;31.00;52.20;;;;;;4975538;28;20459;-64
2022/08/21 12:40:55;;;;;;;4.23;3.03;;;31.00;51.50;;;;;;4975543;28;20481;-64
2022/08/21 12:43:29;;;;;;;4.33;2.67;;;31.00;50.40;;;;;;4975486;28;20446;-64
2022/08/21 12:45:58;;;;;;;3.03;2.60;;;31.10;47.90;;;;;;4975738;28;20450;-65
2022/08/21 12:48:29;;;;;;;3.47;2.50;;;31.20;48.50;;;;;;4975634;28;20506;-66
2022/08/21 12:51:00;;;;;;;6.20;2.80;;;31.20;48.30;;;;;;4975366;28;20844;-66
2022/08/21 12:53:32;;;;;;;5.43;3.53;;;31.20;48.40;;;;;;4975373;28;20443;-67
2022/08/21 12:56:03;;;;;;;4.67;4.37;;;31.20;49.00;;;;;;4975622;28;20540;-68
2022/08/21 12:58:32;;;;;;;4.40;3.37;;;31.00;48.40;;;;;;4975207;28;20446;-66
2022/08/21 13:01:04;;;;;;;4.93;3.50;;;31.00;49.90;;;;;;4974947;28;20482;-66
2022/08/21 13:03:35;;;;;;;4.90;4.30;;;31.00;50.30;;;;;;4974929;28;20451;-65
2022/08/21 13:06:05;;;;;;;5.83;3.10;;;31.00;49.40;;;;;;4975341;28;20442;-65
2022/08/21 13:08:36;;;;;;;6.77;3.33;;;31.10;49.30;;;;;;4974795;28;20446;-65
2022/08/21 13:11:06;;;;;;;3.50;3.20;;;31.10;49.70;;;;;;4974691;28;20993;-65
2022/08/21 13:13:35;;;;;;;4.80;3.70;;;31.10;48.30;;;;;;4975206;28;20454;-68
2022/08/21 13:16:05;;;;;;;3.93;3.53;;;31.10;49.50;;;;;;4974963;28;20458;-68
2022/08/21 13:18:34;;;;;;;4.93;3.10;;;30.70;46.60;;;;;;4975238;28;20526;-65
2022/08/21 13:21:07;;;;;;;3.73;3.40;;;30.50;47.50;;;;;;4974857;28;20482;-65
2022/08/21 13:23:34;;;;;;;6.60;3.67;;;30.30;49.50;;;;;;4975206;28;20449;-66
2022/08/21 13:26:02;;;;;;;6.20;3.80;;;30.30;49.50;;;;;;4974989;28;20458;-65
2022/08/21 13:28:36;;;;;;;5.17;3.53;;;30.10;48.40;;;;;;4975241;28;20458;-65
2022/08/21 13:31:07;;;;;;;5.90;4.17;;;30.00;49.00;;;;;;4975648;28;20497;-65
2022/08/21 13:33:35;;;;;;;4.93;3.40;;;30.10;49.20;;;;;;4975560;28;20533;-66
2022/08/21 13:36:06;;;;;;;3.20;2.97;;;30.20;47.70;;;;;;4975205;28;20446;-65
2022/08/21 13:38:34;;;;;;;4.23;3.10;;;30.20;48.50;;;;;;4975176;28;20439;-66
2022/08/21 13:41:05;;;;;;;5.57;3.27;;;30.30;48.70;;;;;;4974887;28;20474;-67
2022/08/21 13:43:35;;;;;;;4.30;3.27;;;30.30;47.50;;;;;;4974548;28;20458;-66
2022/08/21 13:46:08;;;;;;;4.57;3.20;;;30.30;47.00;;;;;;4975038;28;20435;-66
2022/08/21 13:48:36;;;;;;;3.13;2.90;;;30.10;47.80;;;;;;4974700;28;20926;-66
2022/08/21 13:51:03;;;;;;;4.10;3.13;;;30.00;47.00;;;;;;4974537;28;20978;-66
2022/08/21 13:53:33;;;;;;;3.90;3.30;;;29.90;48.90;;;;;;4974810;28;20458;-66
2022/08/21 13:56:01;;;;;;;3.97;3.53;;;30.00;47.60;;;;;;4974799;28;20458;-67
2022/08/21 13:58:29;;;;;;;3.10;2.70;;;30.00;49.20;;;;;;4974788;28;20454;-67
2022/08/21 14:01:00;;;;;;;5.40;3.70;;;29.90;48.10;;;;;;4974386;28;20490;-67
2022/08/21 14:03:33;;;;;;;7.03;3.37;;;29.90;50.80;;;;;;4974867;28;20443;-67
2022/08/21 14:06:00;;;;;;;3.90;3.03;;;29.90;50.10;;;;;;4974995;28;20494;-69
2022/08/21 14:08:31;;;;;;;3.77;2.80;;;30.00;48.90;;;;;;4974862;28;20481;-71
2022/08/21 14:10:59;;;;;;;9.10;5.73;;;30.10;48.30;;;;;;4974486;28;20483;-69
2022/08/21 14:13:34;;;;;;;3.37;3.07;;;30.20;51.20;;;;;;4974826;28;20461;-69
2022/08/21 14:16:04;;;;;;;3.70;3.03;;;30.20;48.20;;;;;;4974671;28;20449;-69
2022/08/21 14:18:30;;;;;;;3.33;2.87;;;30.30;48.40;;;;;;4975332;28;20469;-69
2022/08/21 14:21:08;;;;;;;4.57;2.87;;;30.30;48.00;;;;;;4976923;28;20490;-66
2022/08/21 14:23:36;;;;;;;4.73;3.47;;;30.30;46.80;;;;;;4979361;28;20946;-67
2022/08/21 14:26:06;;;;;;;5.23;3.10;;;30.30;48.30;;;;;;4980447;28;20928;-67
2022/08/21 14:28:35;;;;;;;3.20;3.00;;;30.20;48.70;;;;;;4978042;28;20446;-67
2022/08/21 14:31:15;;;;;;;5.50;3.03;;;30.10;47.20;;;;;;4977778;28;20475;-68
2022/08/21 14:33:42;;;;;;;4.80;3.37;;;29.90;47.80;;;;;;4978140;28;20443;-67
2022/08/21 14:36:09;;;;;;;3.97;3.00;;;29.70;47.50;;;;;;4977783;28;21008;-67
2022/08/21 14:38:39;;;;;;;3.50;3.00;;;29.50;50.20;;;;;;4978367;28;20462;-68
2022/08/21 14:41:18;;;;;;;3.43;3.03;;;29.30;49.90;;;;;;4977956;28;20478;-68
2022/08/21 14:43:47;;;;;;;3.70;3.17;;;29.30;50.80;;;;;;4977817;28;20858;-67
2022/08/21 14:46:21;;;;;;;5.40;2.90;;;29.10;50.80;;;;;;4977503;28;20938;-68
2022/08/21 14:48:48;;;;;;;5.17;3.10;;;28.90;49.10;;;;;;4977702;28;20453;-67
2022/08/21 14:51:15;;;;;;;3.47;2.77;;;28.70;49.30;;;;;;4978016;28;20506;-67
2022/08/21 14:53:42;;;;;;;4.10;3.50;;;28.70;50.70;;;;;;4977697;28;20435;-71
2022/08/21 14:56:09;;;;;;;3.27;3.00;;;28.70;50.30;;;;;;4977490;28;20461;-68
2022/08/21 14:58:39;;;;;;;4.50;3.50;;;28.90;49.00;;;;;;4977327;28;20451;-67
2022/08/21 15:01:08;;;;;;;6.27;3.90;;;28.90;48.70;;;;;;4977080;28;20997;-63
2022/08/21 15:03:36;;;;;;;4.17;3.20;;;29.00;48.80;;;;;;4976997;28;20913;-62
2022/08/21 15:06:05;;;;;;;3.50;3.20;;;29.20;51.10;;;;;;4977728;28;20450;-63
2022/08/21 15:08:32;;;;;;;4.93;3.47;;;29.30;49.40;;;;;;4977255;28;20457;-67
2022/08/21 15:11:00;;;;;;;2.90;2.70;;;29.50;50.40;;;;;;4976931;28;20471;-67
2022/08/21 15:13:27;;;;;;;3.40;3.10;;;29.60;48.10;;;;;;4977024;28;20486;-67
2022/08/21 15:15:55;;;;;;;3.87;3.13;;;29.70;48.40;;;;;;4976790;28;20968;-68
2022/08/21 15:18:24;;;;;;;5.00;3.10;;;29.60;47.50;;;;;;4977324;28;20517;-66
2022/08/21 15:20:52;;;;;;;7.33;3.27;;;29.60;47.50;;;;;;4976891;28;20474;-66
2022/08/21 15:23:19;;;;;;;3.50;3.10;;;29.60;50.20;;;;;;4977699;28;20435;-66
2022/08/21 15:25:48;;;;;;;4.07;3.33;;;29.70;48.30;;;;;;4981061;28;20439;-66
2022/08/21 15:28:16;;;;;;;3.60;3.30;;;29.70;46.60;;;;;;4980456;28;20475;-66
2022/08/21 15:30:44;;;;;;;2.80;2.60;;;29.60;46.70;;;;;;4976347;28;20993;-65
2022/08/21 15:33:11;;;;;;;3.00;2.70;;;29.50;47.10;;;;;;4976728;28;20844;-66
2022/08/21 15:35:39;;;;;;;3.70;2.93;;;29.40;47.20;;;;;;4976322;28;20454;-65
2022/08/21 15:38:07;;;;;;;3.60;3.30;;;29.40;47.90;;;;;;4976960;28;20481;-65
2022/08/21 15:40:35;;;;;;;5.40;3.33;;;29.30;47.40;;;;;;4976554;28;20470;-67
2022/08/21 15:43:04;;;;;;;3.03;2.53;;;29.30;49.60;;;;;;4976812;28;20478;-66
2022/08/21 15:45:31;;;;;;;7.40;2.87;;;29.40;49.00;;;;;;4976575;28;20454;-66
2022/08/21 15:47:59;;;;;;;3.60;3.27;;;29.50;48.60;;;;;;4976723;28;20439;-65
2022/08/21 15:50:26;;;;;;;3.50;2.60;;;29.50;49.10;;;;;;4975553;28;20459;-66
2022/08/21 15:52:53;;;;;;;4.07;2.93;;;29.60;48.40;;;;;;4976413;28;20257;-65
2022/08/21 15:55:21;;;;;;;3.23;2.80;;;29.60;48.50;;;;;;4976510;28;20509;-65
2022/08/21 15:57:50;;;;;;;4.10;3.10;;;29.50;48.90;;;;;;4976314;28;20454;-66
2022/08/21 16:00:19;;;;;;;3.50;3.20;;;29.40;48.60;;;;;;4975974;28;20458;-65
2022/08/21 16:02:49;;;;;;;5.90;3.47;;;29.20;49.70;;;;;;4976480;28;20442;-65
2022/08/21 16:05:18;;;;;;;2.90;2.70;;;29.20;49.80;;;;;;4976250;28;20469;-65
2022/08/21 16:07:46;;;;;;;3.63;3.33;;;29.20;47.10;;;;;;4975963;28;20462;-65
2022/08/21 16:10:13;;;;;;;2.83;2.63;;;29.10;48.10;;;;;;4976138;28;20470;-66
2022/08/21 16:12:45;;;;;;;3.70;2.93;;;28.90;47.50;;;;;;4975736;28;20865;-66
2022/08/21 16:15:14;;;;;;;3.50;3.20;;;28.90;49.10;;;;;;4976024;28;20494;-65
2022/08/21 16:17:47;;;;;;;4.83;3.30;;;28.90;48.00;;;;;;4975974;28;20461;-66
2022/08/21 16:20:19;;;;;;;3.73;3.43;;;28.80;48.40;;;;;;4975767;28;20998;-65
2022/08/21 16:22:46;;;;;;;4.70;3.60;;;28.70;48.90;;;;;;4975703;28;20914;-66
2022/08/21 16:25:17;;;;;;;3.37;3.10;;;28.60;50.60;;;;;;4976046;28;20462;-66
2022/08/21 16:27:49;;;;;;;6.00;3.33;;;28.50;49.50;;;;;;4976002;28;20439;-65
2022/08/21 16:30:18;;;;;;;3.60;3.30;;;28.50;49.90;;;;;;4975763;28;20450;-65
2022/08/21 16:32:45;;;;;;;12.27;4.60;;;28.40;51.30;;;;;;4975736;28;20494;-66
2022/08/21 16:35:14;;;;;;;6.47;3.40;;;28.40;50.90;;;;;;4976424;28;20461;-66
2022/08/21 16:37:41;;;;;;;9.03;3.50;;;28.30;49.70;;;;;;4976004;28;20931;-66
2022/08/21 16:40:10;;;;;;;5.30;3.33;;;28.20;51.30;;;;;;4975668;28;20459;-65
2022/08/21 16:42:38;;;;;;;3.40;3.10;;;28.00;49.90;;;;;;4974608;28;20986;-65
2022/08/21 16:45:08;;;;;;;6.57;3.30;;;28.00;50.80;;;;;;4975373;28;20461;-65
2022/08/21 16:47:35;;;;;;;4.00;3.70;;;27.90;50.90;;;;;;4975942;28;20439;-65
2022/08/21 16:50:02;;;;;;;3.53;3.23;;;27.90;53.20;;;;;;4975394;28;20454;-65
2022/08/21 16:52:28;;;;;;;3.90;3.40;;;27.90;51.90;;;;;;4975143;28;20489;-65
2022/08/21 16:54:56;;;;;;;5.40;4.13;;;27.90;51.80;;;;;;4975074;28;20459;-65
2022/08/21 16:57:24;;;;;;;3.80;3.50;;;27.80;53.50;;;;;;4975438;28;20465;-65
2022/08/21 16:59:51;;;;;;;8.13;3.27;;;27.70;53.70;;;;;;4975455;28;20474;-64
2022/08/21 17:02:27;;;;;;;6.17;4.20;;;27.70;53.40;;;;;;4979799;28;20482;-65
2022/08/21 17:04:54;;;;;;;3.47;2.77;;;27.70;51.70;;;;;;4976543;28;20457;-65